sensor_id;sensor_type;location;lat;lon;timestamp;temperature;humidity
7574;DHT22;3828;48.922;9.116;2024-02-26T00:03:18;6.80;99.90
7574;DHT22;3828;48.922;9.116;2024-02-26T00:05:45;6.70;99.90
7574;DHT22;3828;48.922;9.116;2024-02-26T00:08:13;6.70;99.90
7574;DHT22;3828;48.922;9.116;2024-02-26T00:18:03;6.70;99.90
7574;DHT22;3828;48.922;9.116;2024-02-26T00:30:18;6.80;99.90
7574;DHT22;3828;48.922;9.116;2024-02-26T00:35:13;6.80;99.90
7574;DHT22;3828;48.922;9.116;2024-02-26T00:37:41;6.80;99.90
7574;DHT22;3828;48.922;9.116;2024-02-26T00:40:09;6.80;99.90
7574;DHT22;3828;48.922;9.116;2024-02-26T00:42:36;6.90;99.90
7574;DHT22;3828;48.922;9.116;2024-02-26T00:45:03;6.80;99.90
7574;DHT22;3828;48.922;9.116;2024-02-26T00:47:37;6.80;99.90
7574;DHT22;3828;48.922;9.116;2024-02-26T00:50:07;6.80;99.90
7574;DHT22;3828;48.922;9.116;2024-02-26T00:52:37;6.70;99.90
7574;DHT22;3828;48.922;9.116;2024-02-26T00:55:04;6.70;99.90
7574;DHT22;3828;48.922;9.116;2024-02-26T00:57:31;6.70;99.90
7574;DHT22;3828;48.922;9.116;2024-02-26T01:09:48;5.60;99.90
7574;DHT22;3828;48.922;9.116;2024-02-26T01:12:15;7.00;99.90
7574;DHT22;3828;48.922;9.116;2024-02-26T01:17:09;7.00;99.90
7574;DHT22;3828;48.922;9.116;2024-02-26T01:22:03;7.20;99.90
7574;DHT22;3828;48.922;9.116;2024-02-26T01:26:58;7.10;99.90
7574;DHT22;3828;48.922;9.116;2024-02-26T01:39:14;6.80;99.90
7574;DHT22;3828;48.922;9.116;2024-02-26T01:44:12;6.70;99.90
7574;DHT22;3828;48.922;9.116;2024-02-26T01:51:33;6.60;99.90
7574;DHT22;3828;48.922;9.116;2024-02-26T01:54:02;6.50;99.90
7574;DHT22;3828;48.922;9.116;2024-02-26T01:58:58;6.70;99.90
7574;DHT22;3828;48.922;9.116;2024-02-26T02:01:27;6.80;99.90
7574;DHT22;3828;48.922;9.116;2024-02-26T02:03:55;6.70;99.90
7574;DHT22;3828;48.922;9.116;2024-02-26T02:06:23;6.70;99.90
7574;DHT22;3828;48.922;9.116;2024-02-26T02:18:40;6.80;99.90
7574;DHT22;3828;48.922;9.116;2024-02-26T02:21:08;6.80;99.90
7574;DHT22;3828;48.922;9.116;2024-02-26T02:26:02;6.90;99.90
7574;DHT22;3828;48.922;9.116;2024-02-26T02:28:29;6.80;99.90
7574;DHT22;3828;48.922;9.116;2024-02-26T02:30:57;6.80;99.90
7574;DHT22;3828;48.922;9.116;2024-02-26T02:33:25;7.00;99.90
7574;DHT22;3828;48.922;9.116;2024-02-26T02:35:52;7.00;99.90
7574;DHT22;3828;48.922;9.116;2024-02-26T02:38:21;7.00;99.90
7574;DHT22;3828;48.922;9.116;2024-02-26T02:53:07;7.10;99.90
7574;DHT22;3828;48.922;9.116;2024-02-26T02:55:35;7.30;99.90
7574;DHT22;3828;48.922;9.116;2024-02-26T02:58:02;7.40;99.90
7574;DHT22;3828;48.922;9.116;2024-02-26T03:02:56;7.30;99.90
7574;DHT22;3828;48.922;9.116;2024-02-26T03:12:47;7.10;99.90
7574;DHT22;3828;48.922;9.116;2024-02-26T03:17:41;7.20;99.90
7574;DHT22;3828;48.922;9.116;2024-02-26T03:20:09;7.20;99.90
7574;DHT22;3828;48.922;9.116;2024-02-26T03:22:38;7.10;99.90
7574;DHT22;3828;48.922;9.116;2024-02-26T03:25:05;7.10;99.90
7574;DHT22;3828;48.922;9.116;2024-02-26T03:27:32;7.20;99.90
7574;DHT22;3828;48.922;9.116;2024-02-26T03:30:00;7.10;99.90
7574;DHT22;3828;48.922;9.116;2024-02-26T03:32:28;7.10;99.90
7574;DHT22;3828;48.922;9.116;2024-02-26T03:42:16;7.20;99.90
7574;DHT22;3828;48.922;9.116;2024-02-26T03:47:11;7.00;99.90
7574;DHT22;3828;48.922;9.116;2024-02-26T03:54:32;7.00;99.90
7574;DHT22;3828;48.922;9.116;2024-02-26T03:59:26;6.90;99.90
7574;DHT22;3828;48.922;9.116;2024-02-26T04:04:21;7.00;99.90
7574;DHT22;3828;48.922;9.116;2024-02-26T04:09:15;6.90;99.90
7574;DHT22;3828;48.922;9.116;2024-02-26T04:11:42;6.90;99.90
7574;DHT22;3828;48.922;9.116;2024-02-26T04:21:33;6.90;99.90
7574;DHT22;3828;48.922;9.116;2024-02-26T04:24:00;6.90;99.90
7574;DHT22;3828;48.922;9.116;2024-02-26T04:26:27;6.80;99.90
7574;DHT22;3828;48.922;9.116;2024-02-26T04:38:44;6.80;99.90
7574;DHT22;3828;48.922;9.116;2024-02-26T04:51:02;6.70;99.90
7574;DHT22;3828;48.922;9.116;2024-02-26T04:55:57;6.90;99.90
7574;DHT22;3828;48.922;9.116;2024-02-26T05:00:51;6.80;99.90
7574;DHT22;3828;48.922;9.116;2024-02-26T05:03:18;6.70;99.90
7574;DHT22;3828;48.922;9.116;2024-02-26T05:05:45;6.70;99.90
7574;DHT22;3828;48.922;9.116;2024-02-26T05:08:12;6.70;99.90
7574;DHT22;3828;48.922;9.116;2024-02-26T05:13:08;6.70;99.90
7574;DHT22;3828;48.922;9.116;2024-02-26T05:20:29;6.70;99.90
7574;DHT22;3828;48.922;9.116;2024-02-26T05:22:56;6.70;99.90
7574;DHT22;3828;48.922;9.116;2024-02-26T05:30:20;7.00;99.90
7574;DHT22;3828;48.922;9.116;2024-02-26T05:35:14;6.90;99.90
7574;DHT22;3828;48.922;9.116;2024-02-26T05:40:09;6.80;99.90
7574;DHT22;3828;48.922;9.116;2024-02-26T05:45:03;6.80;99.90
7574;DHT22;3828;48.922;9.116;2024-02-26T05:47:33;6.80;99.90
7574;DHT22;3828;48.922;9.116;2024-02-26T05:50:00;6.70;99.90
7574;DHT22;3828;48.922;9.116;2024-02-26T05:52:28;6.70;99.90
7574;DHT22;3828;48.922;9.116;2024-02-26T06:04:46;6.70;99.90
7574;DHT22;3828;48.922;9.116;2024-02-26T06:12:07;6.70;99.90
7574;DHT22;3828;48.922;9.116;2024-02-26T06:21:58;6.70;99.90
7574;DHT22;3828;48.922;9.116;2024-02-26T06:24:25;6.70;99.90
7574;DHT22;3828;48.922;9.116;2024-02-26T06:34:16;6.60;99.90
7574;DHT22;3828;48.922;9.116;2024-02-26T06:36:43;6.60;99.90
7574;DHT22;3828;48.922;9.116;2024-02-26T06:39:11;6.60;99.90
7574;DHT22;3828;48.922;9.116;2024-02-26T06:51:26;6.60;99.90
7574;DHT22;3828;48.922;9.116;2024-02-26T06:53:53;6.50;99.90
7574;DHT22;3828;48.922;9.116;2024-02-26T06:56:21;6.60;99.90
7574;DHT22;3828;48.922;9.116;2024-02-26T06:58:48;6.50;99.90
7574;DHT22;3828;48.922;9.116;2024-02-26T07:01:15;6.50;99.90
7574;DHT22;3828;48.922;9.116;2024-02-26T07:08:39;6.60;99.90
7574;DHT22;3828;48.922;9.116;2024-02-26T07:11:07;6.60;99.90
7574;DHT22;3828;48.922;9.116;2024-02-26T07:13:35;6.70;99.90
7574;DHT22;3828;48.922;9.116;2024-02-26T07:16:02;1.80;99.90
7574;DHT22;3828;48.922;9.116;2024-02-26T07:25:53;6.90;99.90
7574;DHT22;3828;48.922;9.116;2024-02-26T07:30:49;6.90;99.90
7574;DHT22;3828;48.922;9.116;2024-02-26T07:38:10;7.10;99.90
7574;DHT22;3828;48.922;9.116;2024-02-26T07:48:03;7.10;99.90
7574;DHT22;3828;48.922;9.116;2024-02-26T07:52:57;7.20;99.90
7574;DHT22;3828;48.922;9.116;2024-02-26T07:55:24;7.20;99.90
7574;DHT22;3828;48.922;9.116;2024-02-26T07:57:50;7.20;99.90
7574;DHT22;3828;48.922;9.116;2024-02-26T08:00:18;7.30;99.90
7574;DHT22;3828;48.922;9.116;2024-02-26T08:02:45;7.30;99.90
7574;DHT22;3828;48.922;9.116;2024-02-26T08:05:14;7.40;99.90
7574;DHT22;3828;48.922;9.116;2024-02-26T08:10:08;7.40;99.90
7574;DHT22;3828;48.922;9.116;2024-02-26T08:15:04;7.50;99.90
7574;DHT22;3828;48.922;9.116;2024-02-26T08:17:31;7.50;99.90
7574;DHT22;3828;48.922;9.116;2024-02-26T08:19:59;7.50;99.90
7574;DHT22;3828;48.922;9.116;2024-02-26T08:22:27;7.50;99.90
7574;DHT22;3828;48.922;9.116;2024-02-26T08:34:42;7.50;99.90
7574;DHT22;3828;48.922;9.116;2024-02-26T08:39:39;7.80;99.90
7574;DHT22;3828;48.922;9.116;2024-02-26T08:42:13;7.90;99.90
7574;DHT22;3828;48.922;9.116;2024-02-26T08:52:01;8.10;99.90
7574;DHT22;3828;48.922;9.116;2024-02-26T08:56:56;8.20;99.90
7574;DHT22;3828;48.922;9.116;2024-02-26T09:01:52;8.30;99.90
7574;DHT22;3828;48.922;9.116;2024-02-26T09:14:12;8.30;99.90
7574;DHT22;3828;48.922;9.116;2024-02-26T09:16:39;8.30;99.90
7574;DHT22;3828;48.922;9.116;2024-02-26T09:24:00;8.20;99.90
7574;DHT22;3828;48.922;9.116;2024-02-26T09:28:53;8.40;99.90
7574;DHT22;3828;48.922;9.116;2024-02-26T09:31:21;8.50;99.90
7574;DHT22;3828;48.922;9.116;2024-02-26T09:36:15;8.80;99.90
7574;DHT22;3828;48.922;9.116;2024-02-26T09:41:15;9.00;99.90
7574;DHT22;3828;48.922;9.116;2024-02-26T09:43:44;9.00;99.90
7574;DHT22;3828;48.922;9.116;2024-02-26T09:46:11;9.10;99.90
7574;DHT22;3828;48.922;9.116;2024-02-26T09:48:40;9.20;99.90
7574;DHT22;3828;48.922;9.116;2024-02-26T09:51:09;9.30;99.90
7574;DHT22;3828;48.922;9.116;2024-02-26T09:53:38;9.30;99.90
7574;DHT22;3828;48.922;9.116;2024-02-26T09:56:08;9.40;99.90
7574;DHT22;3828;48.922;9.116;2024-02-26T09:58:35;9.30;99.90
7574;DHT22;3828;48.922;9.116;2024-02-26T10:01:04;9.30;99.90
7574;DHT22;3828;48.922;9.116;2024-02-26T10:03:40;9.30;99.90
7574;DHT22;3828;48.922;9.116;2024-02-26T10:08:37;9.60;99.90
7574;DHT22;3828;48.922;9.116;2024-02-26T10:11:07;9.80;99.90
7574;DHT22;3828;48.922;9.116;2024-02-26T10:13:34;10.00;99.90
7574;DHT22;3828;48.922;9.116;2024-02-26T10:16:01;10.00;99.90
7574;DHT22;3828;48.922;9.116;2024-02-26T10:18:48;10.20;99.90
7574;DHT22;3828;48.922;9.116;2024-02-26T10:21:16;10.40;99.90
7574;DHT22;3828;48.922;9.116;2024-02-26T10:26:12;10.80;99.90
7574;DHT22;3828;48.922;9.116;2024-02-26T10:28:39;11.20;99.90
7574;DHT22;3828;48.922;9.116;2024-02-26T10:36:04;12.50;99.90
7574;DHT22;3828;48.922;9.116;2024-02-26T10:38:32;12.60;99.90
7574;DHT22;3828;48.922;9.116;2024-02-26T10:45:54;12.80;99.90
7574;DHT22;3828;48.922;9.116;2024-02-26T10:48:22;12.80;99.90
7574;DHT22;3828;48.922;9.116;2024-02-26T10:50:49;12.80;99.90
7574;DHT22;3828;48.922;9.116;2024-02-26T10:53:20;13.00;99.90
7574;DHT22;3828;48.922;9.116;2024-02-26T10:55:49;13.10;99.90
7574;DHT22;3828;48.922;9.116;2024-02-26T10:58:16;13.40;99.90
7574;DHT22;3828;48.922;9.116;2024-02-26T11:08:10;14.10;99.90
7574;DHT22;3828;48.922;9.116;2024-02-26T11:10:39;14.40;99.90
7574;DHT22;3828;48.922;9.116;2024-02-26T11:15:34;15.40;99.90
7574;DHT22;3828;48.922;9.116;2024-02-26T11:20:29;16.00;99.90
7574;DHT22;3828;48.922;9.116;2024-02-26T11:25:27;17.00;99.90
7574;DHT22;3828;48.922;9.116;2024-02-26T11:27:58;17.50;99.90
7574;DHT22;3828;48.922;9.116;2024-02-26T11:30:33;18.00;99.90
7574;DHT22;3828;48.922;9.116;2024-02-26T11:35:29;18.00;99.90
7574;DHT22;3828;48.922;9.116;2024-02-26T11:37:56;18.00;99.90
7574;DHT22;3828;48.922;9.116;2024-02-26T11:48:28;17.10;99.90
7574;DHT22;3828;48.922;9.116;2024-02-26T11:50:55;16.70;99.90
7574;DHT22;3828;48.922;9.116;2024-02-26T11:53:25;16.80;99.90
7574;DHT22;3828;48.922;9.116;2024-02-26T11:56:23;17.20;99.90
7574;DHT22;3828;48.922;9.116;2024-02-26T11:58:56;18.20;99.90
7574;DHT22;3828;48.922;9.116;2024-02-26T12:01:39;19.40;99.90
7574;DHT22;3828;48.922;9.116;2024-02-26T12:04:11;19.90;99.90
7574;DHT22;3828;48.922;9.116;2024-02-26T12:06:49;20.40;99.90
7574;DHT22;3828;48.922;9.116;2024-02-26T12:09:33;20.90;99.90
7574;DHT22;3828;48.922;9.116;2024-02-26T12:12:01;21.20;99.90
7574;DHT22;3828;48.922;9.116;2024-02-26T12:19:25;19.20;99.90
7574;DHT22;3828;48.922;9.116;2024-02-26T12:21:52;18.60;99.90
7574;DHT22;3828;48.922;9.116;2024-02-26T12:24:20;17.90;99.90
7574;DHT22;3828;48.922;9.116;2024-02-26T12:26:47;17.60;99.90
7574;DHT22;3828;48.922;9.116;2024-02-26T12:31:42;17.00;99.90
7574;DHT22;3828;48.922;9.116;2024-02-26T12:36:38;17.10;99.90
7574;DHT22;3828;48.922;9.116;2024-02-26T12:39:06;18.60;99.90
7574;DHT22;3828;48.922;9.116;2024-02-26T12:51:25;15.40;99.90
7574;DHT22;3828;48.922;9.116;2024-02-26T12:53:54;12.40;99.90
7574;DHT22;3828;48.922;9.116;2024-02-26T12:58:50;14.80;99.90
7574;DHT22;3828;48.922;9.116;2024-02-26T13:01:23;14.50;99.90
7574;DHT22;3828;48.922;9.116;2024-02-26T13:03:50;14.30;99.90
7574;DHT22;3828;48.922;9.116;2024-02-26T13:11:14;14.10;99.90
7574;DHT22;3828;48.922;9.116;2024-02-26T13:16:13;14.20;99.90
7574;DHT22;3828;48.922;9.116;2024-02-26T13:21:09;14.70;99.90
7574;DHT22;3828;48.922;9.116;2024-02-26T13:23:37;15.00;99.90
7574;DHT22;3828;48.922;9.116;2024-02-26T13:26:04;15.40;99.90
7574;DHT22;3828;48.922;9.116;2024-02-26T13:28:33;16.10;99.90
7574;DHT22;3828;48.922;9.116;2024-02-26T13:31:00;16.60;99.90
7574;DHT22;3828;48.922;9.116;2024-02-26T13:40:51;17.20;99.90
7574;DHT22;3828;48.922;9.116;2024-02-26T13:45:47;16.60;99.90
7574;DHT22;3828;48.922;9.116;2024-02-26T13:50:42;16.10;99.90
7574;DHT22;3828;48.922;9.116;2024-02-26T13:53:11;16.20;99.90
7574;DHT22;3828;48.922;9.116;2024-02-26T13:55:39;16.30;99.90
7574;DHT22;3828;48.922;9.116;2024-02-26T13:58:08;16.30;99.90
7574;DHT22;3828;48.922;9.116;2024-02-26T14:03:07;15.80;99.90
7574;DHT22;3828;48.922;9.116;2024-02-26T14:12:56;15.20;99.90
7574;DHT22;3828;48.922;9.116;2024-02-26T14:20:23;14.90;99.90
7574;DHT22;3828;48.922;9.116;2024-02-26T14:30:15;16.40;99.90
7574;DHT22;3828;48.922;9.116;2024-02-26T14:37:38;17.50;99.90
7574;DHT22;3828;48.922;9.116;2024-02-26T14:40:06;17.10;99.90
7574;DHT22;3828;48.922;9.116;2024-02-26T14:54:50;15.80;99.90
7574;DHT22;3828;48.922;9.116;2024-02-26T15:12:02;14.60;99.90
7574;DHT22;3828;48.922;9.116;2024-02-26T15:14:32;14.50;99.90
7574;DHT22;3828;48.922;9.116;2024-02-26T15:24:20;13.90;99.90
7574;DHT22;3828;48.922;9.116;2024-02-26T15:26:47;13.80;99.90
7574;DHT22;3828;48.922;9.116;2024-02-26T15:29:15;13.80;99.90
7574;DHT22;3828;48.922;9.116;2024-02-26T15:41:32;13.40;99.90
7574;DHT22;3828;48.922;9.116;2024-02-26T15:49:05;13.20;99.90
7574;DHT22;3828;48.922;9.116;2024-02-26T16:06:22;13.20;99.90
7574;DHT22;3828;48.922;9.116;2024-02-26T16:16:16;12.90;99.90
7574;DHT22;3828;48.922;9.116;2024-02-26T16:21:13;12.70;99.90
7574;DHT22;3828;48.922;9.116;2024-02-26T16:28:35;12.50;99.90
7574;DHT22;3828;48.922;9.116;2024-02-26T16:38:26;12.20;99.90
7574;DHT22;3828;48.922;9.116;2024-02-26T17:12:55;11.60;99.90
7574;DHT22;3828;48.922;9.116;2024-02-26T17:17:50;11.50;99.90
7574;DHT22;3828;48.922;9.116;2024-02-26T17:27:42;11.30;99.90
7574;DHT22;3828;48.922;9.116;2024-02-26T17:35:06;11.20;99.90
7574;DHT22;3828;48.922;9.116;2024-02-26T17:47:28;10.90;99.90
7574;DHT22;3828;48.922;9.116;2024-02-26T18:02:10;10.70;99.90
7574;DHT22;3828;48.922;9.116;2024-02-26T18:16:56;10.60;99.90
7574;DHT22;3828;48.922;9.116;2024-02-26T18:21:52;10.60;99.90
7574;DHT22;3828;48.922;9.116;2024-02-26T18:26:45;10.60;99.90
7574;DHT22;3828;48.922;9.116;2024-02-26T18:39:05;10.60;99.90
7574;DHT22;3828;48.922;9.116;2024-02-26T18:41:35;10.60;99.90
7574;DHT22;3828;48.922;9.116;2024-02-26T18:51:23;10.60;99.90
7574;DHT22;3828;48.922;9.116;2024-02-26T18:53:50;10.60;99.90
7574;DHT22;3828;48.922;9.116;2024-02-26T19:11:06;10.40;99.90
7574;DHT22;3828;48.922;9.116;2024-02-26T19:13:35;10.40;99.90
7574;DHT22;3828;48.922;9.116;2024-02-26T19:16:02;10.30;99.90
7574;DHT22;3828;48.922;9.116;2024-02-26T19:25:53;10.20;99.90
7574;DHT22;3828;48.922;9.116;2024-02-26T19:28:20;10.10;99.90
7574;DHT22;3828;48.922;9.116;2024-02-26T19:30:48;10.10;99.90
7574;DHT22;3828;48.922;9.116;2024-02-26T19:40:42;10.00;99.90
7574;DHT22;3828;48.922;9.116;2024-02-26T19:45:37;9.90;99.90
7574;DHT22;3828;48.922;9.116;2024-02-26T19:48:07;9.80;99.90
7574;DHT22;3828;48.922;9.116;2024-02-26T19:57:55;9.80;99.90
7574;DHT22;3828;48.922;9.116;2024-02-26T20:05:20;9.70;99.90
7574;DHT22;3828;48.922;9.116;2024-02-26T20:24:59;9.80;99.90
7574;DHT22;3828;48.922;9.116;2024-02-26T20:39:48;9.50;99.90
7574;DHT22;3828;48.922;9.116;2024-02-26T20:42:16;9.60;99.90
7574;DHT22;3828;48.922;9.116;2024-02-26T20:57:05;9.50;99.90
7574;DHT22;3828;48.922;9.116;2024-02-26T21:14:20;9.40;99.90
7574;DHT22;3828;48.922;9.116;2024-02-26T21:24:08;9.30;99.90
7574;DHT22;3828;48.922;9.116;2024-02-26T21:26:35;9.40;99.90
7574;DHT22;3828;48.922;9.116;2024-02-26T21:31:34;9.50;99.90
7574;DHT22;3828;48.922;9.116;2024-02-26T21:38:57;9.60;99.90
7574;DHT22;3828;48.922;9.116;2024-02-26T21:46:20;9.50;99.90
7574;DHT22;3828;48.922;9.116;2024-02-26T21:48:48;9.60;99.90
7574;DHT22;3828;48.922;9.116;2024-02-26T21:58:37;9.50;99.90
7574;DHT22;3828;48.922;9.116;2024-02-26T22:05:59;9.50;99.90
7574;DHT22;3828;48.922;9.116;2024-02-26T22:18:17;9.40;99.90
7574;DHT22;3828;48.922;9.116;2024-02-26T22:23:12;9.30;99.90
7574;DHT22;3828;48.922;9.116;2024-02-26T22:40:23;9.10;99.90
7574;DHT22;3828;48.922;9.116;2024-02-26T22:57:42;8.90;99.90
7574;DHT22;3828;48.922;9.116;2024-02-26T23:00:09;8.90;99.90
7574;DHT22;3828;48.922;9.116;2024-02-26T23:07:44;8.90;99.90
7574;DHT22;3828;48.922;9.116;2024-02-26T23:15:08;8.90;99.90
7574;DHT22;3828;48.922;9.116;2024-02-26T23:20:04;8.90;99.90
7574;DHT22;3828;48.922;9.116;2024-02-26T23:22:34;9.00;99.90
7574;DHT22;3828;48.922;9.116;2024-02-26T23:27:29;9.00;99.90
7574;DHT22;3828;48.922;9.116;2024-02-26T23:32:24;9.00;99.90
7574;DHT22;3828;48.922;9.116;2024-02-26T23:34:51;8.90;99.90
7574;DHT22;3828;48.922;9.116;2024-02-26T23:39:46;9.00;99.90
7574;DHT22;3828;48.922;9.116;2024-02-26T23:47:07;8.90;99.90
7574;DHT22;3828;48.922;9.116;2024-02-26T23:49:35;8.90;99.90
7574;DHT22;3828;48.922;9.116;2024-02-26T23:52:03;8.90;99.90
